createdAt,value
2023-06-21T00:00:42.026Z,92.54
2023-06-21T00:03:08.809Z,93.34
2023-06-21T00:05:35.518Z,93.45
2023-06-21T00:08:02.109Z,92.57
2023-06-21T00:10:30.591Z,93.08
2023-06-21T00:12:57.595Z,91.28
2023-06-21T00:15:24.315Z,92.22
2023-06-21T00:17:50.987Z,92.03
2023-06-21T00:20:18.492Z,91.67
2023-06-21T00:22:48.402Z,92.45
2023-06-21T00:25:16.139Z,92.30
2023-06-21T00:27:45.935Z,90.45
2023-06-21T00:30:12.675Z,90.87
2023-06-21T00:32:40.141Z,89.63
2023-06-21T00:35:07.566Z,89.92
2023-06-21T00:37:35.340Z,89.46
2023-06-21T00:40:02.071Z,89.80
2023-06-21T00:42:28.716Z,90.23
2023-06-21T00:44:55.291Z,90.49
2023-06-21T00:47:23.275Z,90.69
2023-06-21T00:49:50.015Z,92.50
2023-06-21T00:52:18.525Z,93.05
2023-06-21T00:54:46.530Z,92.89
2023-06-21T00:57:14.187Z,92.39
2023-06-21T00:59:40.876Z,92.19
2023-06-21T01:02:07.594Z,92.65
2023-06-21T01:04:35.794Z,92.14
2023-06-21T01:07:28.591Z,91.28
2023-06-21T01:10:15.308Z,91.83
2023-06-21T01:12:54.730Z,93.44
2023-06-21T01:15:26.005Z,92.32
2023-06-21T01:17:54.487Z,93.66
2023-06-21T01:20:31.995Z,91.12
2023-06-21T01:23:25.927Z,88.95
2023-06-21T01:25:55.369Z,91.74
2023-06-21T01:28:43.941Z,90.57
2023-06-21T01:31:16.955Z,91.07
2023-06-21T01:33:45.090Z,92.32
2023-06-21T01:36:11.969Z,89.91
2023-06-21T01:38:38.823Z,91.97
2023-06-21T01:41:07.389Z,91.44
2023-06-21T01:43:34.913Z,90.83
2023-06-21T01:46:03.865Z,91.24
2023-06-21T01:48:34.396Z,91.43
2023-06-21T01:51:03.488Z,91.66
2023-06-21T01:53:37.298Z,92.77
2023-06-21T01:56:09.806Z,93.11
2023-06-21T01:58:36.571Z,92.01
2023-06-21T02:01:04.754Z,91.74
2023-06-21T02:03:32.914Z,91.76
2023-06-21T02:06:04.608Z,92.02
2023-06-21T02:08:32.128Z,93.58
2023-06-21T02:10:58.690Z,93.56
2023-06-21T02:13:27.375Z,93.42
2023-06-21T02:15:55.021Z,93.09
2023-06-21T02:18:23.128Z,92.65
2023-06-21T02:20:50.595Z,92.31
2023-06-21T02:23:19.442Z,92.89
2023-06-21T02:25:46.020Z,92.31
2023-06-21T02:28:12.728Z,93.46
2023-06-21T02:30:39.325Z,93.50
2023-06-21T02:33:05.968Z,92.88
2023-06-21T02:35:32.654Z,93.08
2023-06-21T02:37:59.683Z,94.54
2023-06-21T02:40:26.322Z,93.04
2023-06-21T02:42:53.980Z,94.45
2023-06-21T02:45:20.616Z,93.14
2023-06-21T02:47:47.619Z,93.80
2023-06-21T02:50:16.446Z,95.14
2023-06-21T02:52:43.180Z,94.91
2023-06-21T02:55:10.046Z,94.86
2023-06-21T02:57:36.698Z,93.16
2023-06-21T03:00:24.883Z,94.69
2023-06-21T03:02:51.907Z,93.99
2023-06-21T03:05:18.749Z,95.01
2023-06-21T03:07:47.352Z,94.52
2023-06-21T03:10:17.190Z,95.08
2023-06-21T03:12:44.849Z,94.54
2023-06-21T03:15:15.648Z,94.08
2023-06-21T03:17:43.503Z,95.54
2023-06-21T03:20:14.979Z,95.32
2023-06-21T03:22:44.869Z,94.46
2023-06-21T03:25:13.306Z,94.65
2023-06-21T03:27:41.908Z,93.61
2023-06-21T03:30:13.869Z,93.29
2023-06-21T03:32:48.122Z,92.17
2023-06-21T03:35:18.043Z,92.54
2023-06-21T03:37:47.378Z,93.13
2023-06-21T03:40:15.478Z,92.48
2023-06-21T03:42:44.006Z,93.65
2023-06-21T03:45:11.768Z,94.17
2023-06-21T03:47:41.285Z,92.80
2023-06-21T03:50:09.368Z,93.95
2023-06-21T03:52:39.666Z,93.67
2023-06-21T03:55:08.195Z,93.78
2023-06-21T03:57:35.107Z,93.24
2023-06-21T04:00:01.953Z,92.57
2023-06-21T04:02:30.082Z,93.16
2023-06-21T04:04:56.747Z,93.23
2023-06-21T04:07:24.469Z,93.14
2023-06-21T04:09:51.454Z,92.21
2023-06-21T04:12:18.101Z,91.67
2023-06-21T04:14:44.689Z,90.46
2023-06-21T04:17:11.260Z,90.87
2023-06-21T04:19:37.867Z,90.89
2023-06-21T04:22:04.573Z,90.62
2023-06-21T04:24:32.677Z,90.61
2023-06-21T04:26:59.713Z,91.08
2023-06-21T04:29:29.298Z,91.14
2023-06-21T04:31:56.456Z,91.16
2023-06-21T04:34:23.381Z,89.96
2023-06-21T04:36:50.168Z,89.69
2023-06-21T04:39:18.053Z,89.65
2023-06-21T04:41:49.296Z,88.46
2023-06-21T04:44:18.170Z,87.41
2023-06-21T04:46:47.991Z,87.25
2023-06-21T04:49:18.629Z,88.25
2023-06-21T04:51:45.224Z,84.21
2023-06-21T04:54:12.994Z,80.55
2023-06-21T04:56:39.691Z,73.72
2023-06-21T04:59:08.888Z,71.04
2023-06-21T05:01:35.499Z,68.81
2023-06-21T05:04:02.040Z,67.16
2023-06-21T05:06:28.664Z,64.12
2023-06-21T05:08:55.204Z,62.64
2023-06-21T05:11:22.136Z,62.04
2023-06-21T05:13:48.576Z,61.26
2023-06-21T05:16:15.111Z,67.87
2023-06-21T05:18:41.747Z,74.50
2023-06-21T05:21:08.370Z,78.93
2023-06-21T05:23:35.476Z,79.47
2023-06-21T05:26:04.799Z,82.39
2023-06-21T05:28:32.020Z,84.72
2023-06-21T05:30:58.724Z,86.50
2023-06-21T05:33:25.351Z,87.61
2023-06-21T05:35:52.026Z,88.05
2023-06-21T05:38:18.598Z,87.39
2023-06-21T05:40:45.168Z,88.41
2023-06-21T05:43:11.730Z,89.26
2023-06-21T05:45:39.637Z,88.49
2023-06-21T05:48:06.693Z,88.93
2023-06-21T05:50:33.206Z,88.48
2023-06-21T05:53:00.367Z,89.45
2023-06-21T05:55:26.955Z,90.26
2023-06-21T05:57:53.509Z,90.87
2023-06-21T06:00:20.293Z,90.56
2023-06-21T06:02:46.924Z,88.40
2023-06-21T06:05:13.616Z,88.50
2023-06-21T06:07:40.203Z,89.02
2023-06-21T06:10:07.256Z,87.89
2023-06-21T06:12:34.816Z,86.44
2023-06-21T06:15:01.739Z,85.92
2023-06-21T06:17:28.830Z,86.06
2023-06-21T06:19:55.342Z,83.26
2023-06-21T06:22:21.907Z,82.01
2023-06-21T06:24:49.743Z,81.81
2023-06-21T06:27:16.391Z,79.96
2023-06-21T06:29:43.035Z,78.76
2023-06-21T06:32:09.598Z,80.62
2023-06-21T06:34:36.163Z,80.35
2023-06-21T06:37:13.770Z,80.30
2023-06-21T06:39:42.651Z,77.01
2023-06-21T06:42:11.189Z,77.94
2023-06-21T06:44:38.323Z,79.29
2023-06-21T06:47:06.497Z,78.11
2023-06-21T06:49:33.186Z,78.85
2023-06-21T06:51:59.797Z,78.35
2023-06-21T06:54:26.462Z,77.60
2023-06-21T06:56:53.098Z,76.93
2023-06-21T06:59:19.770Z,77.28
2023-06-21T07:01:46.388Z,76.06
2023-06-21T07:04:13.090Z,75.45
2023-06-21T07:06:39.760Z,77.59
2023-06-21T07:09:06.386Z,80.50
2023-06-21T07:11:33.160Z,78.92
2023-06-21T07:14:01.974Z,75.95
2023-06-21T07:16:35.794Z,79.74
2023-06-21T07:19:04.466Z,79.02
2023-06-21T07:21:31.032Z,76.51
2023-06-21T07:23:57.863Z,77.42
2023-06-21T07:26:25.603Z,79.25
2023-06-21T07:28:52.569Z,80.06
2023-06-21T07:31:19.218Z,79.67
2023-06-21T07:33:48.825Z,79.11
2023-06-21T07:36:15.986Z,79.91
2023-06-21T07:38:47.336Z,77.60
2023-06-21T07:41:14.368Z,74.19
2023-06-21T07:43:41.041Z,74.69
2023-06-21T07:46:15.263Z,72.91
2023-06-21T07:48:42.575Z,71.74
2023-06-21T07:51:10.444Z,72.16
2023-06-21T07:53:36.981Z,69.00
2023-06-21T07:56:03.654Z,69.71
2023-06-21T07:58:30.262Z,69.76
2023-06-21T08:00:56.815Z,71.23
2023-06-21T08:03:23.351Z,71.58
2023-06-21T08:05:49.935Z,70.44
2023-06-21T08:08:18.860Z,68.43
2023-06-21T08:10:45.539Z,68.50
2023-06-21T08:13:12.218Z,71.34
2023-06-21T08:15:38.964Z,71.76
2023-06-21T08:18:05.677Z,72.30
2023-06-21T08:20:34.613Z,72.47
2023-06-21T08:23:01.293Z,72.82
2023-06-21T08:25:30.919Z,72.84
2023-06-21T08:27:58.325Z,71.04
2023-06-21T08:30:25.359Z,71.49
2023-06-21T08:32:52.161Z,70.10
2023-06-21T08:35:18.926Z,69.61
2023-06-21T08:38:04.470Z,71.05
2023-06-21T08:40:39.179Z,69.86
2023-06-21T08:43:06.328Z,70.35
2023-06-21T08:45:33.348Z,70.12
2023-06-21T08:48:04.369Z,70.22
2023-06-21T08:50:31.276Z,70.50
2023-06-21T08:53:01.224Z,69.18
2023-06-21T08:55:30.710Z,69.33
2023-06-21T08:58:00.623Z,67.73
2023-06-21T09:00:34.981Z,65.19
2023-06-21T09:03:14.781Z,67.44
2023-06-21T09:06:04.266Z,66.06
2023-06-21T09:08:35.665Z,67.68
2023-06-21T09:11:03.551Z,66.20
2023-06-21T09:13:32.950Z,67.00
2023-06-21T09:16:00.233Z,64.54
2023-06-21T09:18:28.508Z,63.93
2023-06-21T09:20:55.365Z,63.85
2023-06-21T09:23:22.017Z,62.84
2023-06-21T09:25:49.460Z,63.30
2023-06-21T09:28:16.282Z,62.01
2023-06-21T09:30:43.430Z,59.73
2023-06-21T09:33:11.545Z,62.35
2023-06-21T09:35:40.260Z,61.42
2023-06-21T09:38:23.379Z,64.00
2023-06-21T09:40:50.157Z,64.38
2023-06-21T09:43:19.134Z,61.69
2023-06-21T09:46:04.440Z,60.73
2023-06-21T09:48:39.178Z,60.67
2023-06-21T09:51:09.820Z,61.85
2023-06-21T09:53:37.519Z,59.43
2023-06-21T09:56:04.756Z,58.86
2023-06-21T09:58:37.845Z,58.84
2023-06-21T10:01:08.308Z,59.54
2023-06-21T10:03:35.752Z,62.01
2023-06-21T10:06:04.363Z,62.99
2023-06-21T10:08:37.406Z,61.79
2023-06-21T10:11:04.505Z,61.98
2023-06-21T10:13:31.774Z,61.76
2023-06-21T10:16:00.755Z,62.12
2023-06-21T10:18:28.504Z,60.90
2023-06-21T10:20:59.269Z,60.19
2023-06-21T10:23:30.091Z,59.12
2023-06-21T10:26:00.859Z,59.16
2023-06-21T10:28:29.583Z,59.24
2023-06-21T10:30:59.459Z,59.51
2023-06-21T10:33:31.731Z,57.99
2023-06-21T10:36:02.186Z,59.05
2023-06-21T10:38:37.466Z,57.24
2023-06-21T10:41:05.757Z,57.17
2023-06-21T10:43:34.224Z,56.93
2023-06-21T10:46:01.809Z,58.97
2023-06-21T10:48:32.489Z,56.74
2023-06-21T10:51:03.120Z,56.40
2023-06-21T10:53:32.858Z,56.88
2023-06-21T10:56:02.389Z,57.24
2023-06-21T10:58:32.753Z,56.95
2023-06-21T11:00:59.871Z,55.86
2023-06-21T11:03:27.993Z,55.84
2023-06-21T11:06:15.024Z,55.79
2023-06-21T11:08:41.901Z,56.01
2023-06-21T11:11:08.504Z,55.17
2023-06-21T11:13:40.225Z,55.87
2023-06-21T11:16:14.768Z,55.58
2023-06-21T11:18:45.040Z,56.60
2023-06-21T11:21:11.688Z,58.85
2023-06-21T11:23:52.603Z,56.45
2023-06-21T11:26:19.664Z,56.54
2023-06-21T11:28:49.804Z,55.63
2023-06-21T11:31:24.549Z,54.98
2023-06-21T11:33:56.748Z,53.91
2023-06-21T11:36:26.602Z,55.72
2023-06-21T11:39:13.974Z,54.54
2023-06-21T11:41:46.713Z,53.59
2023-06-21T11:44:15.140Z,52.40
2023-06-21T11:46:43.814Z,53.03
2023-06-21T11:49:10.530Z,52.38
2023-06-21T11:51:50.089Z,52.76
2023-06-21T11:54:33.495Z,53.58
2023-06-21T11:57:00.565Z,53.91
2023-06-21T11:59:27.621Z,53.49
2023-06-21T12:01:54.927Z,54.48
2023-06-21T15:17:36.379Z,52.95
2023-06-21T15:20:03.392Z,52.44
2023-06-21T15:22:29.907Z,52.28
2023-06-21T15:24:57.257Z,53.12
2023-06-21T15:27:24.244Z,52.43
2023-06-21T15:29:51.172Z,52.99
2023-06-21T15:32:17.787Z,51.75
2023-06-21T15:34:46.012Z,52.41
2023-06-21T15:37:12.712Z,53.83
2023-06-21T15:39:39.348Z,52.15
2023-06-21T15:42:06.298Z,52.04
2023-06-21T15:44:33.015Z,52.34
2023-06-21T15:47:00.689Z,52.77
2023-06-21T15:49:27.503Z,51.67
2023-06-21T15:51:54.170Z,53.14
2023-06-21T15:54:21.185Z,53.11
2023-06-21T15:56:47.825Z,52.34
2023-06-21T15:59:14.631Z,50.94
2023-06-21T16:01:41.303Z,52.09
2023-06-21T16:04:08.182Z,52.72
2023-06-21T16:06:34.909Z,51.93
2023-06-21T16:09:01.553Z,51.72
2023-06-21T16:11:28.237Z,50.78
2023-06-21T16:13:54.939Z,51.21
2023-06-21T16:16:21.640Z,51.47
2023-06-21T16:18:50.324Z,53.01
2023-06-21T16:21:17.020Z,51.94
2023-06-21T16:23:43.742Z,52.99
2023-06-21T16:26:10.424Z,54.65
2023-06-21T16:28:37.221Z,52.63
2023-06-21T16:31:04.397Z,51.66
2023-06-21T16:33:31.261Z,51.89
2023-06-21T16:35:57.980Z,51.89
2023-06-21T16:38:24.687Z,51.95
2023-06-21T16:40:51.640Z,51.03
2023-06-21T16:43:18.174Z,52.02
2023-06-21T16:45:45.351Z,49.67
2023-06-21T16:48:12.344Z,51.94
2023-06-21T16:50:38.975Z,52.64
2023-06-21T16:53:06.004Z,51.19
2023-06-21T16:55:32.858Z,52.25
2023-06-21T16:58:00.205Z,51.71
2023-06-21T17:00:28.443Z,52.67
2023-06-21T17:02:55.803Z,51.09
2023-06-21T17:05:22.843Z,50.61
2023-06-21T17:07:50.586Z,50.55
2023-06-21T17:10:19.319Z,49.82
2023-06-21T17:12:46.380Z,52.47
2023-06-21T17:15:13.475Z,51.37
2023-06-21T17:17:41.539Z,50.79
2023-06-21T17:20:09.244Z,50.70
2023-06-21T17:22:36.053Z,50.80
2023-06-21T17:25:04.002Z,52.33
2023-06-21T17:27:31.045Z,51.97
2023-06-21T17:29:57.879Z,50.98
2023-06-21T17:32:24.816Z,51.50
2023-06-21T17:34:51.657Z,50.05
2023-06-21T17:37:18.406Z,50.37
2023-06-21T17:39:45.177Z,51.65
2023-06-21T17:42:12.004Z,52.81
2023-06-21T17:44:38.768Z,52.57
2023-06-21T17:47:05.748Z,50.24
2023-06-21T17:49:32.260Z,50.56
2023-06-21T17:51:58.982Z,49.72
2023-06-21T17:54:25.643Z,50.94
2023-06-21T17:56:52.268Z,52.27
2023-06-21T17:59:19.012Z,50.89
2023-06-21T18:01:46.427Z,51.61
2023-06-21T18:04:13.319Z,53.04
2023-06-21T18:06:40.032Z,51.72
2023-06-21T18:09:06.776Z,51.88
2023-06-21T18:11:33.421Z,55.14
2023-06-21T18:14:00.457Z,52.56
2023-06-21T18:16:29.872Z,52.61
2023-06-21T18:18:57.433Z,52.60
2023-06-21T18:21:24.189Z,54.16
2023-06-21T18:23:51.029Z,53.97
2023-06-21T18:26:17.998Z,55.88
2023-06-21T18:28:44.498Z,52.46
2023-06-21T18:31:11.171Z,53.62
2023-06-21T18:33:37.800Z,54.80
2023-06-21T18:36:04.583Z,54.58
2023-06-21T18:38:31.829Z,54.03
2023-06-21T18:40:58.501Z,54.47
2023-06-21T18:43:25.355Z,55.19
2023-06-21T18:45:51.999Z,54.52
2023-06-21T18:48:18.746Z,56.92
2023-06-21T18:50:45.386Z,55.03
2023-06-21T18:53:12.726Z,55.07
2023-06-21T18:55:39.317Z,56.63
2023-06-21T18:58:05.928Z,55.53
2023-06-21T19:00:32.586Z,57.77
2023-06-21T19:02:59.825Z,60.15
2023-06-21T19:05:26.705Z,59.36
2023-06-21T19:07:53.398Z,58.97
2023-06-21T19:10:20.113Z,56.82
2023-06-21T19:12:46.856Z,56.91
2023-06-21T19:15:15.484Z,56.67
2023-06-21T19:17:42.372Z,57.48
2023-06-21T19:20:09.510Z,57.05
2023-06-21T19:22:36.237Z,56.18
2023-06-21T19:25:03.567Z,56.50
2023-06-21T19:27:30.159Z,57.52
2023-06-21T19:29:57.424Z,57.72
2023-06-21T19:32:24.093Z,59.82
2023-06-21T19:34:50.896Z,57.86
2023-06-21T19:37:18.145Z,61.48
2023-06-21T19:39:45.648Z,61.45
2023-06-21T19:42:13.458Z,58.23
2023-06-21T19:44:41.894Z,59.81
2023-06-21T19:47:10.711Z,59.69
2023-06-21T19:49:38.305Z,60.43
2023-06-21T19:52:05.372Z,60.94
2023-06-21T19:54:31.863Z,59.34
2023-06-21T19:56:59.431Z,61.32
2023-06-21T19:59:26.095Z,59.08
2023-06-21T20:01:52.772Z,59.31
2023-06-21T20:04:19.497Z,60.96
2023-06-21T20:06:46.332Z,61.49
2023-06-21T20:09:13.024Z,61.40
2023-06-21T20:11:39.699Z,63.39
2023-06-21T20:14:06.436Z,62.53
2023-06-21T20:16:33.137Z,63.94
2023-06-21T20:18:59.787Z,62.04
2023-06-21T20:21:26.445Z,62.65
2023-06-21T20:23:53.186Z,62.89
2023-06-21T20:26:20.098Z,63.57
2023-06-21T20:28:46.803Z,62.86
2023-06-21T20:31:13.421Z,62.93
2023-06-21T20:33:40.450Z,63.70
2023-06-21T20:36:07.990Z,64.73
2023-06-21T20:38:36.878Z,66.07
2023-06-21T20:41:10.427Z,67.02
2023-06-21T20:43:43.399Z,67.70
2023-06-21T20:46:12.805Z,67.93
2023-06-21T20:48:39.596Z,68.21
2023-06-21T20:51:06.925Z,68.38
2023-06-21T20:53:33.764Z,69.74
2023-06-21T20:56:02.115Z,69.64
2023-06-21T20:58:30.275Z,70.13
2023-06-21T21:00:57.528Z,69.85
2023-06-21T21:03:24.434Z,69.62
2023-06-21T21:05:51.209Z,69.65
2023-06-21T21:08:17.962Z,70.77
2023-06-21T21:10:44.621Z,71.70
2023-06-21T21:13:11.290Z,70.75
2023-06-21T21:15:38.367Z,71.27
2023-06-21T21:18:04.986Z,71.57
2023-06-21T21:20:31.669Z,70.18
2023-06-21T21:22:58.248Z,69.98
2023-06-21T21:25:26.190Z,70.27
2023-06-21T21:27:52.788Z,71.01
2023-06-21T21:30:19.452Z,71.45
2023-06-21T21:32:46.188Z,72.94
2023-06-21T21:35:12.778Z,71.62
2023-06-21T21:37:39.855Z,71.82
2023-06-21T21:40:07.741Z,72.28
2023-06-21T21:42:34.354Z,72.80
2023-06-21T21:45:00.952Z,73.22
2023-06-21T21:47:27.556Z,73.16
2023-06-21T21:49:54.313Z,73.13
2023-06-21T21:52:21.040Z,72.03
2023-06-21T21:54:47.621Z,73.33
2023-06-21T21:57:14.210Z,71.82
2023-06-21T21:59:40.763Z,71.34
2023-06-21T22:02:08.388Z,72.34
2023-06-21T22:04:36.528Z,72.25
2023-06-21T22:07:03.185Z,72.37
2023-06-21T22:09:29.853Z,73.21
2023-06-21T22:11:57.928Z,73.38
2023-06-21T22:14:24.601Z,74.10
2023-06-21T22:16:53.060Z,73.97
2023-06-21T22:19:19.847Z,73.32
2023-06-21T22:21:53.222Z,74.94
2023-06-21T22:24:22.541Z,74.82
2023-06-21T22:26:51.607Z,75.05
2023-06-21T22:29:20.265Z,75.66
2023-06-21T22:31:50.490Z,75.44
2023-06-21T22:34:18.970Z,76.26
2023-06-21T22:36:46.032Z,76.20
2023-06-21T22:39:12.777Z,77.29
2023-06-21T22:41:41.393Z,76.00
2023-06-21T22:44:08.724Z,75.23
2023-06-21T22:46:35.778Z,75.97
2023-06-21T22:49:04.408Z,76.03
2023-06-21T22:51:34.265Z,76.19
2023-06-21T22:54:00.986Z,75.78
2023-06-21T22:56:27.836Z,75.27
2023-06-21T22:58:54.492Z,76.06
2023-06-21T23:01:21.686Z,76.64
2023-06-21T23:03:49.345Z,75.87
2023-06-21T23:06:16.344Z,76.37
2023-06-21T23:08:45.875Z,77.15
2023-06-21T23:11:13.369Z,76.69
2023-06-21T23:13:40.229Z,78.32
2023-06-21T23:16:10.302Z,78.09
2023-06-21T23:18:38.912Z,76.95
2023-06-21T23:21:07.324Z,76.40
2023-06-21T23:23:34.717Z,77.80
2023-06-21T23:26:01.409Z,77.68
2023-06-21T23:28:31.780Z,78.50
2023-06-21T23:31:14.236Z,79.11
2023-06-21T23:33:46.249Z,79.29
2023-06-21T23:36:14.107Z,80.53
2023-06-21T23:38:46.170Z,79.71
2023-06-21T23:41:13.206Z,79.29
2023-06-21T23:43:41.424Z,79.18
2023-06-21T23:46:08.236Z,79.85
2023-06-21T23:48:37.056Z,80.66
2023-06-21T23:51:05.692Z,79.39
2023-06-21T23:53:34.472Z,79.74
2023-06-21T23:56:01.418Z,80.08
2023-06-21T23:58:28.462Z,79.30
